Time;durP1;ratioP1;P1;durP2;ratioP2;P2;SDS_P1;SDS_P2;PMS_P1;PMS_P2;Temp;Humidity;BMP_temperature;BMP_pressure;BME280_temperature;BME280_humidity;BME280_pressure;Samples;Min_cycle;Max_cycle;Signal;HPM_P1;HPM_P2
2022/02/05 00:05:28;;;;;;;3.00;0.80;;;5.40;99.90;;;;;;6272061;22;20797;-81
2022/02/05 00:08:11;;;;;;;1.30;0.90;;;5.40;99.90;;;;;;6250291;22;20382;-81
2022/02/05 00:13:30;;;;;;;0.83;0.83;;;5.30;99.90;;;;;;6289139;22;20474;-81
2022/02/05 00:43:19;;;;;;;2.93;1.60;;;4.50;99.90;;;;;;6283493;22;20371;-82
2022/02/05 00:45:54;;;;;;;1.10;1.00;;;4.50;99.90;;;;;;6240283;22;20418;-82
2022/02/05 00:48:21;;;;;;;2.30;1.37;;;4.30;99.90;;;;;;6240656;22;20761;-82
2022/02/05 00:50:56;;;;;;;1.50;1.30;;;4.30;99.90;;;;;;6240879;22;20392;-82
2022/02/05 00:53:34;;;;;;;1.67;1.10;;;4.20;99.90;;;;;;6243448;22;20953;-82
2022/02/05 00:56:26;;;;;;;1.90;1.13;;;4.10;99.90;;;;;;6245256;22;20390;-82
2022/02/05 00:58:59;;;;;;;1.83;1.23;;;4.00;99.90;;;;;;6243042;22;20445;-81
2022/02/05 01:01:25;;;;;;;1.67;1.17;;;3.90;99.90;;;;;;6243455;22;20380;-81
2022/02/05 01:03:53;;;;;;;1.50;1.17;;;3.80;99.90;;;;;;6243004;22;20877;-82
2022/02/05 01:06:21;;;;;;;1.90;1.03;;;3.70;99.90;;;;;;6243411;22;20210;-82
2022/02/05 01:08:47;;;;;;;2.40;1.47;;;3.70;99.90;;;;;;6246835;22;20388;-82
2022/02/05 01:11:13;;;;;;;2.43;1.73;;;3.60;99.90;;;;;;6241886;22;20877;-81
2022/02/05 01:13:38;;;;;;;3.43;1.57;;;3.60;99.90;;;;;;6242812;22;20239;-82
2022/02/05 01:16:19;;;;;;;3.87;1.83;;;3.60;99.90;;;;;;6241153;22;20990;-81
2022/02/05 01:18:46;;;;;;;1.80;1.40;;;3.50;99.90;;;;;;6249757;22;20983;-82
2022/02/05 01:23:52;;;;;;;3.30;1.93;;;3.40;99.90;;;;;;6281008;22;20399;-82
2022/02/05 01:28:55;;;;;;;4.03;2.47;;;3.30;99.90;;;;;;6268185;22;20395;-82
2022/02/05 01:31:28;;;;;;;2.07;1.37;;;3.20;99.90;;;;;;6243269;22;20380;-82
2022/02/05 01:34:11;;;;;;;5.03;1.83;;;3.20;99.90;;;;;;6239225;22;20492;-82
2022/02/05 01:39:31;;;;;;;1.63;1.17;;;3.10;99.90;;;;;;6243306;22;20384;-82
2022/02/05 01:48:50;;;;;;;1.43;1.30;;;3.10;99.90;;;;;;6267522;22;20519;-82
2022/02/05 01:58:21;;;;;;;1.63;1.00;;;2.80;99.90;;;;;;6284399;22;20448;-82
2022/02/05 02:11:48;;;;;;;2.10;1.00;;;2.70;99.90;;;;;;6275293;22;20576;-82
2022/02/05 02:19:31;;;;;;;2.10;1.33;;;2.70;99.90;;;;;;6273564;22;20376;-82
2022/02/05 02:24:46;;;;;;;1.00;1.00;;;2.70;99.90;;;;;;6279804;22;20420;-82
2022/02/05 02:32:04;;;;;;;0.73;0.73;;;2.60;99.90;;;;;;6271644;22;20260;-82
2022/02/05 02:34:35;;;;;;;0.90;0.90;;;2.50;99.90;;;;;;6242525;22;20428;-82
2022/02/05 02:37:18;;;;;;;2.17;1.30;;;2.50;99.90;;;;;;6244292;22;20395;-82
2022/02/05 02:42:28;;;;;;;1.23;1.13;;;2.50;99.90;;;;;;6274929;22;20422;-82
2022/02/05 02:44:54;;;;;;;1.53;0.90;;;2.50;99.90;;;;;;6244219;22;20647;-82
2022/02/05 02:47:20;;;;;;;2.70;0.90;;;2.50;99.90;;;;;;6243000;22;20843;-82
2022/02/05 02:57:55;;;;;;;5.53;1.20;;;2.40;99.90;;;;;;6269262;22;20948;-82
2022/02/05 03:00:21;;;;;;;1.40;1.03;;;2.30;99.90;;;;;;6219454;22;20471;-82
2022/02/05 03:02:54;;;;;;;1.67;1.10;;;2.20;99.90;;;;;;6272419;22;20515;-82
2022/02/05 03:05:28;;;;;;;1.70;1.20;;;2.20;99.90;;;;;;6244163;22;20388;-82
2022/02/05 03:07:55;;;;;;;0.83;0.83;;;2.20;99.90;;;;;;6247756;22;20386;-82
2022/02/05 03:10:21;;;;;;;1.27;1.17;;;2.20;99.90;;;;;;6271651;22;20398;-82
2022/02/05 03:12:49;;;;;;;1.33;1.20;;;2.20;99.90;;;;;;6242381;22;20420;-82
2022/02/05 03:15:19;;;;;;;1.80;1.27;;;2.20;99.90;;;;;;6191783;22;20491;-82
2022/02/05 03:18:02;;;;;;;1.53;1.20;;;2.10;99.90;;;;;;6272914;22;20361;-82
2022/02/05 03:20:28;;;;;;;1.37;1.10;;;2.10;99.90;;;;;;6241442;22;20852;-82
2022/02/05 03:22:55;;;;;;;2.73;1.20;;;2.10;99.90;;;;;;6243935;22;20662;-82
2022/02/05 03:25:28;;;;;;;1.10;1.00;;;2.10;99.90;;;;;;6216558;22;20168;-82
2022/02/05 03:27:56;;;;;;;2.80;1.10;;;2.10;99.90;;;;;;6218480;22;20591;-82
2022/02/05 03:30:24;;;;;;;1.00;1.00;;;2.00;99.90;;;;;;6245005;22;20485;-82
2022/02/05 03:32:50;;;;;;;1.10;1.10;;;2.00;99.90;;;;;;6242865;22;20607;-82
2022/02/05 03:35:17;;;;;;;1.13;1.07;;;2.00;99.90;;;;;;6242898;22;20388;-82
2022/02/05 03:37:46;;;;;;;1.43;0.87;;;2.00;99.90;;;;;;6218444;22;20162;-82
2022/02/05 03:40:12;;;;;;;2.10;1.10;;;2.10;99.90;;;;;;6242470;22;20925;-82
2022/02/05 03:42:38;;;;;;;2.30;1.30;;;2.10;99.90;;;;;;6245954;22;20445;-81
2022/02/05 03:45:09;;;;;;;2.53;1.27;;;2.10;99.90;;;;;;6271958;22;20619;-82
2022/02/05 03:47:36;;;;;;;1.40;1.10;;;2.10;99.90;;;;;;6266603;22;20184;-82
2022/02/05 03:50:04;;;;;;;1.23;1.13;;;2.10;99.90;;;;;;6258415;22;20376;-82
2022/02/05 03:52:30;;;;;;;1.30;1.20;;;2.10;99.90;;;;;;6218681;22;20412;-82
2022/02/05 03:54:57;;;;;;;2.87;1.20;;;2.10;99.90;;;;;;6215765;22;20921;-82
2022/02/05 03:57:25;;;;;;;1.67;1.13;;;2.10;99.90;;;;;;6243520;22;20379;-82
2022/02/05 03:59:55;;;;;;;3.83;1.40;;;2.00;99.90;;;;;;6275405;22;20706;-82
2022/02/05 04:02:23;;;;;;;3.33;1.20;;;2.10;99.90;;;;;;6233444;22;21220;-82
2022/02/05 04:04:50;;;;;;;2.87;1.10;;;2.10;99.90;;;;;;6245134;22;20386;-82
2022/02/05 04:07:15;;;;;;;2.40;1.17;;;2.20;99.90;;;;;;6237750;22;20390;-82
2022/02/05 04:09:42;;;;;;;1.20;1.10;;;2.20;99.90;;;;;;6240426;22;20430;-81
2022/02/05 04:17:32;;;;;;;3.40;2.37;;;2.10;99.90;;;;;;6274378;22;20366;-82
2022/02/05 04:19:58;;;;;;;2.10;1.63;;;2.10;99.90;;;;;;6245410;22;20387;-82
2022/02/05 04:22:25;;;;;;;2.83;1.90;;;2.10;99.90;;;;;;6268664;22;20402;-82
2022/02/05 04:24:50;;;;;;;2.37;1.80;;;2.10;99.90;;;;;;6242893;22;20434;-82
2022/02/05 04:27:19;;;;;;;1.53;1.43;;;2.20;99.90;;;;;;6244574;22;20865;-82
2022/02/05 04:29:45;;;;;;;2.43;1.80;;;2.30;99.90;;;;;;6271616;22;20580;-82
2022/02/05 04:32:13;;;;;;;3.60;1.93;;;2.40;99.90;;;;;;6242436;22;20408;-82
2022/02/05 04:34:40;;;;;;;1.90;1.80;;;2.40;99.90;;;;;;6217698;22;21012;-82
2022/02/05 04:37:07;;;;;;;1.83;1.67;;;2.40;99.90;;;;;;6244218;22;20929;-82
2022/02/05 04:39:36;;;;;;;1.90;1.70;;;2.50;99.90;;;;;;6269224;22;20399;-82
2022/02/05 04:42:13;;;;;;;2.90;2.03;;;2.50;99.90;;;;;;6242618;22;20407;-82
2022/02/05 04:45:22;;;;;;;2.63;2.43;;;2.50;99.90;;;;;;6244840;22;20892;-81
2022/02/05 04:53:25;;;;;;;5.20;2.60;;;2.50;99.90;;;;;;6271720;22;20859;-82
2022/02/05 05:01:20;;;;;;;3.93;2.00;;;2.60;99.90;;;;;;6274101;22;20153;-82
2022/02/05 05:21:42;;;;;;;2.60;2.00;;;2.80;99.90;;;;;;6273107;22;20384;-82
2022/02/05 05:24:08;;;;;;;2.50;2.13;;;2.90;99.90;;;;;;6243222;22;20165;-81
2022/02/05 05:26:34;;;;;;;2.63;1.73;;;3.00;99.90;;;;;;6245119;22;20501;-81
2022/02/05 05:28:59;;;;;;;3.70;2.77;;;2.90;99.90;;;;;;6244597;22;20444;-81
2022/02/05 05:31:25;;;;;;;2.30;2.10;;;2.90;99.90;;;;;;6247703;22;20545;-81
2022/02/05 05:33:51;;;;;;;2.70;2.50;;;2.90;99.90;;;;;;6248647;22;20683;-81
2022/02/05 05:36:16;;;;;;;2.53;2.33;;;2.80;99.90;;;;;;6244523;22;20267;-82
2022/02/05 05:38:42;;;;;;;2.43;2.10;;;2.80;99.90;;;;;;6245376;22;20159;-81
2022/02/05 05:41:09;;;;;;;5.00;2.17;;;2.80;99.90;;;;;;6244940;22;20153;-82
2022/02/05 05:48:54;;;;;;;2.10;1.90;;;2.60;99.90;;;;;;6278439;22;20215;-81
2022/02/05 05:51:18;;;;;;;2.20;2.00;;;2.50;99.90;;;;;;6271796;22;21015;-81
2022/02/05 05:53:44;;;;;;;3.70;2.43;;;2.50;99.90;;;;;;6244412;22;20433;-81
2022/02/05 05:56:11;;;;;;;3.20;2.10;;;2.40;99.90;;;;;;6243291;22;20388;-81
2022/02/05 05:58:38;;;;;;;3.40;2.20;;;2.40;99.90;;;;;;6244372;22;20475;-80
2022/02/05 06:01:03;;;;;;;4.20;2.07;;;2.40;99.90;;;;;;6243827;22;20913;-82
2022/02/05 06:03:29;;;;;;;5.33;2.20;;;2.30;99.90;;;;;;6243027;22;20409;-82
2022/02/05 06:05:55;;;;;;;2.07;1.80;;;2.30;99.90;;;;;;6245364;22;20153;-82
2022/02/05 06:08:21;;;;;;;5.10;2.63;;;2.30;99.90;;;;;;6245111;22;20427;-81
2022/02/05 06:10:47;;;;;;;2.80;2.10;;;2.30;99.90;;;;;;6245386;22;20154;-82
2022/02/05 06:13:13;;;;;;;2.60;2.07;;;2.30;99.90;;;;;;6244566;22;20750;-81
2022/02/05 06:15:41;;;;;;;1.90;1.80;;;2.20;99.90;;;;;;6247338;22;20249;-82
2022/02/05 06:18:07;;;;;;;2.83;1.90;;;2.30;99.90;;;;;;6251394;22;20422;-82
2022/02/05 06:20:33;;;;;;;6.10;2.83;;;2.20;99.90;;;;;;6247441;22;20423;-82
2022/02/05 06:22:59;;;;;;;2.40;2.20;;;2.20;99.90;;;;;;6247431;22;20859;-82
2022/02/05 06:25:25;;;;;;;3.57;2.87;;;2.20;99.90;;;;;;6247208;22;20384;-82
2022/02/05 06:27:50;;;;;;;3.90;3.03;;;2.20;99.90;;;;;;6245674;22;20165;-81
2022/02/05 06:30:16;;;;;;;3.67;2.70;;;2.20;99.90;;;;;;6245741;22;20588;-82
2022/02/05 06:32:42;;;;;;;2.97;2.33;;;2.20;99.90;;;;;;6248611;22;20168;-82
2022/02/05 06:35:08;;;;;;;2.87;2.20;;;2.20;99.90;;;;;;6252403;22;20252;-81
2022/02/05 06:37:34;;;;;;;7.63;2.73;;;2.10;99.90;;;;;;6245196;22;20167;-81
2022/02/05 06:40:00;;;;;;;2.10;1.93;;;2.10;99.90;;;;;;6246171;22;20403;-82
2022/02/05 06:42:25;;;;;;;2.70;2.20;;;2.10;99.90;;;;;;6246229;22;20589;-81
2022/02/05 06:44:51;;;;;;;3.47;2.47;;;2.10;99.90;;;;;;6246784;22;20169;-81
2022/02/05 06:47:17;;;;;;;2.50;2.30;;;2.10;99.90;;;;;;6245818;22;20171;-81
2022/02/05 06:49:44;;;;;;;2.63;2.43;;;2.10;99.90;;;;;;6248642;22;20326;-81
2022/02/05 06:52:10;;;;;;;3.10;2.20;;;2.10;99.90;;;;;;6244352;22;20168;-82
2022/02/05 06:54:36;;;;;;;2.70;2.50;;;2.10;99.90;;;;;;6244076;22;20456;-82
2022/02/05 06:57:02;;;;;;;3.93;2.50;;;2.00;99.90;;;;;;6242578;22;20901;-82
2022/02/05 06:59:27;;;;;;;5.37;2.50;;;2.00;99.90;;;;;;6246010;22;20675;-82
2022/02/05 07:01:53;;;;;;;3.57;2.60;;;2.00;99.90;;;;;;6245439;22;20387;-82
2022/02/05 07:04:23;;;;;;;4.53;3.10;;;2.00;99.90;;;;;;6245511;22;20165;-82
2022/02/05 07:06:52;;;;;;;5.30;2.90;;;2.00;99.90;;;;;;6245028;22;20146;-83
2022/02/05 07:09:20;;;;;;;2.63;2.03;;;1.90;99.90;;;;;;6246285;22;20784;-82
2022/02/05 07:11:45;;;;;;;3.50;2.07;;;1.90;99.90;;;;;;6245070;22;20701;-82
2022/02/05 07:14:13;;;;;;;5.00;2.90;;;1.90;99.90;;;;;;6240854;22;20525;-83
2022/02/05 07:16:47;;;;;;;3.70;2.80;;;1.90;99.90;;;;;;6239911;22;20415;-84
2022/02/05 07:21:51;;;;;;;6.13;2.30;;;2.00;99.90;;;;;;6273893;22;20879;-83
2022/02/05 07:24:28;;;;;;;5.20;2.80;;;2.00;99.90;;;;;;6245409;22;20774;-83
2022/02/05 07:29:38;;;;;;;6.07;3.10;;;2.00;99.90;;;;;;6274359;22;20477;-83
2022/02/05 07:32:07;;;;;;;4.90;3.10;;;2.10;99.90;;;;;;6245491;22;20804;-85
2022/02/05 07:34:35;;;;;;;3.67;2.87;;;2.20;99.90;;;;;;6247595;22;20189;-84
2022/02/05 07:37:02;;;;;;;2.60;2.40;;;2.20;99.90;;;;;;6246177;22;20411;-82
2022/02/05 07:39:37;;;;;;;4.80;3.20;;;2.20;99.90;;;;;;6245477;22;21278;-82
2022/02/05 07:42:03;;;;;;;5.73;3.37;;;2.20;99.90;;;;;;6244688;22;20390;-82
2022/02/05 07:44:29;;;;;;;3.37;2.60;;;2.30;99.90;;;;;;6244892;22;20854;-81
2022/02/05 07:46:55;;;;;;;3.20;2.60;;;2.30;99.90;;;;;;6241838;22;20722;-81
2022/02/05 07:49:23;;;;;;;3.77;2.93;;;2.30;99.90;;;;;;6251414;22;20157;-82
2022/02/05 07:51:49;;;;;;;3.83;2.17;;;2.30;99.90;;;;;;6254207;22;20463;-82
2022/02/05 07:54:15;;;;;;;5.27;2.70;;;2.20;99.90;;;;;;6253854;22;20508;-81
2022/02/05 07:56:46;;;;;;;3.70;2.90;;;2.20;99.90;;;;;;6247624;22;20389;-81
2022/02/05 07:59:13;;;;;;;4.80;2.87;;;2.30;99.90;;;;;;6244678;22;20870;-81
2022/02/05 08:01:39;;;;;;;4.63;2.70;;;2.40;99.90;;;;;;6244872;22;20387;-82
2022/02/05 08:04:05;;;;;;;2.87;2.50;;;2.50;99.90;;;;;;6240935;22;20411;-82
2022/02/05 08:06:33;;;;;;;3.00;2.33;;;2.60;99.90;;;;;;6245293;22;20744;-82
2022/02/05 08:09:02;;;;;;;3.40;2.63;;;2.60;99.90;;;;;;6245012;22;20392;-81
2022/02/05 08:11:38;;;;;;;4.33;2.33;;;2.70;99.90;;;;;;6248301;22;20441;-82
2022/02/05 08:14:09;;;;;;;3.90;2.53;;;2.80;99.90;;;;;;6249067;22;20834;-83
2022/02/05 08:16:49;;;;;;;2.77;1.90;;;2.80;99.90;;;;;;6249928;22;20738;-82
2022/02/05 08:19:15;;;;;;;1.93;1.57;;;2.90;99.90;;;;;;6244111;22;20386;-82
2022/02/05 08:21:41;;;;;;;4.43;2.10;;;3.00;99.90;;;;;;6247316;22;20730;-82
2022/02/05 08:24:20;;;;;;;3.17;2.40;;;3.10;99.90;;;;;;6243674;22;20384;-82
2022/02/05 08:26:46;;;;;;;3.17;1.93;;;3.20;99.90;;;;;;6243830;22;20384;-82
2022/02/05 08:29:16;;;;;;;3.43;2.17;;;3.20;99.90;;;;;;6242179;22;20804;-82
2022/02/05 08:31:42;;;;;;;2.20;1.60;;;3.30;99.90;;;;;;6245813;22;20145;-82
2022/02/05 08:34:09;;;;;;;2.40;2.10;;;3.40;99.90;;;;;;6247894;22;20485;-82
2022/02/05 08:36:40;;;;;;;4.27;1.60;;;3.50;99.90;;;;;;6247603;22;20762;-81
2022/02/05 08:39:19;;;;;;;2.23;1.80;;;3.70;99.90;;;;;;6244405;22;20867;-83
2022/02/05 08:41:48;;;;;;;3.10;1.60;;;3.90;99.90;;;;;;6246881;22;20422;-85
2022/02/05 08:44:14;;;;;;;5.60;1.77;;;4.10;99.90;;;;;;6245641;22;20429;-84
2022/02/05 08:46:44;;;;;;;2.03;1.83;;;4.20;99.90;;;;;;6242749;22;20813;-84
2022/02/05 08:49:09;;;;;;;2.57;2.00;;;4.40;99.90;;;;;;6245831;22;20411;-85
2022/02/05 08:51:39;;;;;;;4.00;1.90;;;4.50;99.90;;;;;;6244119;22;20690;-84
2022/02/05 08:54:05;;;;;;;2.53;1.83;;;4.60;99.90;;;;;;6248592;22;20635;-85
2022/02/05 08:56:31;;;;;;;2.13;1.93;;;4.90;99.90;;;;;;6248544;22;20772;-85
2022/02/05 08:58:59;;;;;;;3.73;2.03;;;5.00;99.90;;;;;;6248621;22;20197;-84
2022/02/05 09:01:41;;;;;;;2.50;1.60;;;5.20;99.90;;;;;;6245002;22;20161;-81
2022/02/05 09:04:17;;;;;;;2.07;1.50;;;5.20;99.90;;;;;;6244352;22;20416;-82
2022/02/05 09:06:46;;;;;;;1.40;1.30;;;5.20;99.90;;;;;;6246116;22;20717;-82
2022/02/05 09:09:22;;;;;;;3.07;2.00;;;5.00;99.90;;;;;;6244226;22;20391;-82
2022/02/05 09:11:55;;;;;;;3.97;2.00;;;5.10;99.90;;;;;;6274341;22;20377;-81
2022/02/05 09:16:54;;;;;;;3.03;1.67;;;5.40;99.90;;;;;;6271144;22;20434;-82
2022/02/05 09:19:20;;;;;;;3.13;1.80;;;5.60;99.90;;;;;;6244285;22;20450;-81
2022/02/05 09:21:48;;;;;;;2.47;1.67;;;5.70;99.90;;;;;;6246034;22;20437;-82
2022/02/05 09:24:17;;;;;;;1.70;1.20;;;5.80;99.90;;;;;;6248886;22;20387;-81
2022/02/05 09:26:45;;;;;;;3.10;1.40;;;5.80;99.90;;;;;;6243143;22;20420;-81
2022/02/05 09:29:20;;;;;;;5.97;2.03;;;6.00;99.90;;;;;;6244595;22;20457;-81
2022/02/05 09:31:47;;;;;;;1.93;1.40;;;6.10;99.90;;;;;;6244542;22;20749;-80
2022/02/05 09:34:13;;;;;;;1.77;1.40;;;6.20;99.90;;;;;;6244973;22;20822;-81
2022/02/05 09:36:44;;;;;;;5.10;1.57;;;6.30;99.90;;;;;;6245900;22;20694;-81
2022/02/05 09:39:12;;;;;;;2.00;1.30;;;6.40;99.90;;;;;;6244196;22;20838;-81
2022/02/05 09:41:40;;;;;;;3.23;1.50;;;6.50;99.90;;;;;;6244714;22;20718;-81
2022/02/05 09:44:06;;;;;;;1.60;1.27;;;6.50;99.90;;;;;;6243458;22;20400;-82
2022/02/05 09:46:33;;;;;;;1.43;1.27;;;6.90;99.90;;;;;;6243634;22;20419;-82
2022/02/05 09:49:01;;;;;;;4.43;1.50;;;6.70;99.90;;;;;;6240903;22;20550;-81
2022/02/05 09:51:36;;;;;;;3.63;1.70;;;6.90;99.90;;;;;;6241004;22;20712;-82
2022/02/05 09:54:04;;;;;;;3.13;1.50;;;7.20;99.90;;;;;;6239322;22;20824;-82
2022/02/05 09:56:32;;;;;;;2.37;1.50;;;7.70;99.90;;;;;;6242982;22;20385;-81
2022/02/05 09:58:59;;;;;;;2.30;1.20;;;6.90;99.60;;;;;;6244385;22;20395;-81
2022/02/05 10:01:29;;;;;;;4.30;1.23;;;6.90;99.90;;;;;;6243818;22;20485;-81
2022/02/05 10:03:56;;;;;;;1.20;0.93;;;6.60;99.90;;;;;;6240277;22;20400;-80
2022/02/05 10:06:32;;;;;;;1.43;1.20;;;6.50;99.90;;;;;;6235286;22;20791;-81
2022/02/05 10:09:05;;;;;;;4.30;1.40;;;6.40;99.90;;;;;;6237141;22;20394;-81
2022/02/05 10:12:11;;;;;;;2.30;1.10;;;6.40;99.90;;;;;;6231368;22;20843;-81
2022/02/05 10:14:38;;;;;;;5.17;1.20;;;6.70;99.90;;;;;;6239038;22;20546;-81
2022/02/05 10:17:05;;;;;;;1.77;0.70;;;6.70;99.90;;;;;;6245356;22;20824;-81
2022/02/05 10:19:49;;;;;;;3.77;1.47;;;6.40;99.90;;;;;;6241699;22;20513;-82
2022/02/05 10:22:15;;;;;;;2.77;1.27;;;6.60;99.90;;;;;;6241612;22;20905;-83
2022/02/05 10:24:52;;;;;;;3.27;1.40;;;6.70;99.90;;;;;;6241665;22;20736;-83
2022/02/05 10:27:28;;;;;;;5.50;1.40;;;7.00;99.80;;;;;;6242610;22;20397;-82
2022/02/05 10:30:23;;;;;;;4.30;1.83;;;7.30;99.40;;;;;;6235403;22;20388;-84
2022/02/05 10:33:07;;;;;;;3.03;1.33;;;7.50;99.30;;;;;;6240422;22;20410;-84
2022/02/05 10:36:08;;;;;;;2.13;1.57;;;7.70;98.10;;;;;;6239047;22;20390;-83
2022/02/05 10:39:10;;;;;;;3.70;1.20;;;7.50;98.20;;;;;;6240479;22;20827;-83
2022/02/05 10:44:16;;;;;;;3.17;1.20;;;6.80;99.30;;;;;;6278675;22;20380;-83
2022/02/05 10:46:43;;;;;;;1.47;0.67;;;7.10;98.50;;;;;;6241709;22;20404;-83
2022/02/05 10:49:10;;;;;;;4.50;1.30;;;7.20;97.80;;;;;;6246108;22;20631;-84
2022/02/05 10:51:42;;;;;;;2.50;1.57;;;7.30;98.30;;;;;;6243363;22;20392;-83
2022/02/05 10:54:16;;;;;;;2.10;1.23;;;7.10;98.50;;;;;;6244325;22;20859;-84
2022/02/05 10:57:20;;;;;;;1.57;1.13;;;7.30;98.50;;;;;;6245939;22;20410;-84
2022/02/05 11:08:13;;;;;;;4.60;1.27;;;7.20;97.30;;;;;;6271311;22;20442;-85
2022/02/05 11:14:27;;;;;;;4.80;1.07;;;7.30;97.80;;;;;;6273333;22;20514;-85
2022/02/05 11:20:13;;;;;;;5.43;1.23;;;7.20;97.20;;;;;;6274641;22;20543;-84
2022/02/05 11:22:44;;;;;;;3.67;1.20;;;7.60;96.80;;;;;;6247224;22;20389;-84
2022/02/05 11:25:12;;;;;;;3.37;1.17;;;7.50;96.60;;;;;;6247530;22;20394;-85
2022/02/05 11:27:58;;;;;;;1.53;0.80;;;7.40;97.10;;;;;;6243868;22;20392;-86
2022/02/05 11:30:31;;;;;;;1.63;0.83;;;7.80;95.90;;;;;;6245265;22;20807;-84
2022/02/05 11:33:02;;;;;;;2.03;1.10;;;8.30;95.40;;;;;;6246700;22;20426;-84
2022/02/05 11:35:33;;;;;;;3.73;1.30;;;7.90;95.10;;;;;;6246001;22;20392;-84
2022/02/05 11:38:15;;;;;;;4.43;1.40;;;7.80;95.60;;;;;;6249240;22;20877;-84
2022/02/05 11:40:53;;;;;;;3.80;1.00;;;8.30;95.50;;;;;;6244960;22;20884;-86
2022/02/05 11:43:30;;;;;;;3.27;1.60;;;8.60;94.30;;;;;;6273439;22;20925;-84
2022/02/05 11:46:07;;;;;;;2.30;0.70;;;8.60;94.20;;;;;;6243522;22;20760;-84
2022/02/05 11:48:53;;;;;;;2.00;1.10;;;8.70;93.40;;;;;;6244710;22;20399;-85
2022/02/05 11:51:28;;;;;;;1.67;0.80;;;8.90;93.10;;;;;;6244395;22;20384;-84
2022/02/05 11:53:59;;;;;;;3.73;1.30;;;8.90;92.80;;;;;;6244526;22;20455;-84
2022/02/05 11:59:24;;;;;;;1.53;1.10;;;8.60;92.30;;;;;;6273960;22;20487;-83
2022/02/05 12:02:07;;;;;;;1.63;1.30;;;8.70;92.80;;;;;;6243654;22;20465;-82
2022/02/05 12:04:33;;;;;;;1.63;1.10;;;8.70;92.80;;;;;;6243826;22;20400;-81
2022/02/05 12:07:07;;;;;;;1.60;1.00;;;8.50;93.40;;;;;;6243644;22;20392;-81
2022/02/05 12:09:38;;;;;;;4.57;1.30;;;8.40;93.40;;;;;;6245740;22;20568;-82
2022/02/05 12:12:23;;;;;;;1.70;1.13;;;8.10;93.40;;;;;;6251925;22;20396;-81
2022/02/05 12:15:14;;;;;;;4.83;1.47;;;8.10;93.40;;;;;;6273782;22;20791;-81
2022/02/05 12:18:07;;;;;;;3.97;1.20;;;7.90;93.20;;;;;;6244112;22;20940;-81
2022/02/05 12:20:58;;;;;;;1.57;0.77;;;8.30;93.20;;;;;;6245783;22;20398;-81
2022/02/05 12:26:29;;;;;;;3.70;0.80;;;9.00;91.90;;;;;;6194883;22;20901;-81
2022/02/05 12:29:00;;;;;;;2.47;1.00;;;9.40;90.40;;;;;;6244773;22;20376;-80
2022/02/05 12:31:30;;;;;;;2.57;0.80;;;9.30;90.60;;;;;;6245950;22;20392;-81
2022/02/05 12:33:59;;;;;;;2.40;1.10;;;9.30;91.30;;;;;;6245722;22;21051;-81
2022/02/05 12:36:39;;;;;;;4.10;1.73;;;9.00;91.60;;;;;;6243595;22;20589;-80
2022/02/05 12:39:26;;;;;;;1.27;1.00;;;9.50;91.30;;;;;;6246044;22;20510;-81
2022/02/05 12:42:11;;;;;;;1.90;0.80;;;9.80;90.80;;;;;;6245556;22;20449;-80
2022/02/05 12:44:39;;;;;;;2.53;1.00;;;9.20;90.40;;;;;;6246096;22;20807;-81
2022/02/05 12:47:13;;;;;;;4.60;1.20;;;8.20;90.90;;;;;;6244008;22;20404;-81
2022/02/05 12:52:05;;;;;;;1.17;0.73;;;7.70;92.30;;;;;;6271777;22;20933;-81
2022/02/05 12:54:33;;;;;;;3.40;1.00;;;7.90;92.60;;;;;;6242242;22;20193;-81
2022/02/05 12:57:00;;;;;;;1.80;0.90;;;8.50;91.80;;;;;;6248047;22;20387;-83
2022/02/05 12:59:35;;;;;;;2.30;0.93;;;9.30;91.50;;;;;;6246755;22;20523;-82
2022/02/05 13:02:06;;;;;;;1.67;1.00;;;10.10;89.50;;;;;;6252355;22;20561;-81
2022/02/05 13:04:38;;;;;;;2.57;0.97;;;10.70;85.00;;;;;;6246314;22;20926;-82
2022/02/05 13:07:16;;;;;;;2.50;1.07;;;10.10;85.10;;;;;;6244527;22;20384;-82
2022/02/05 13:09:53;;;;;;;1.80;0.80;;;10.30;85.20;;;;;;6245421;22;20449;-82
2022/02/05 13:12:22;;;;;;;2.30;1.07;;;10.60;83.30;;;;;;6246024;22;20384;-82
2022/02/05 13:14:50;;;;;;;1.80;1.40;;;10.10;85.60;;;;;;6245579;22;20538;-82
2022/02/05 13:25:41;;;;;;;2.00;1.07;;;10.20;83.50;;;;;;6272220;22;20417;-82
2022/02/05 13:36:29;;;;;;;2.10;0.93;;;11.20;78.50;;;;;;6271692;22;20205;-82
2022/02/05 13:39:30;;;;;;;2.63;1.53;;;11.10;80.10;;;;;;6244703;22;20418;-82
2022/02/05 13:42:05;;;;;;;2.10;1.43;;;11.30;80.20;;;;;;6273644;22;20426;-82
2022/02/05 13:45:00;;;;;;;2.50;0.80;;;11.50;79.10;;;;;;6245551;22;20376;-82
2022/02/05 13:47:49;;;;;;;1.67;1.57;;;11.70;76.70;;;;;;6271187;22;20474;-83
2022/02/05 13:50:21;;;;;;;1.87;1.37;;;12.60;76.90;;;;;;6242830;22;20376;-82
2022/02/05 13:52:52;;;;;;;2.60;1.40;;;12.10;76.40;;;;;;6252144;22;20411;-82
2022/02/05 13:55:25;;;;;;;1.03;0.93;;;12.30;76.10;;;;;;6249389;22;20985;-82
2022/02/05 13:58:14;;;;;;;1.13;1.00;;;11.50;77.70;;;;;;6254057;22;20422;-82
2022/02/05 14:00:48;;;;;;;1.90;0.73;;;10.90;78.60;;;;;;6260251;22;20388;-82
2022/02/05 14:03:27;;;;;;;0.80;0.73;;;11.40;78.10;;;;;;6247205;22;20407;-82
2022/02/05 14:06:05;;;;;;;1.53;0.93;;;11.70;76.10;;;;;;6241015;22;20387;-83
2022/02/05 14:08:31;;;;;;;3.30;1.10;;;11.10;76.10;;;;;;6244918;22;20437;-83
2022/02/05 14:10:59;;;;;;;2.50;1.27;;;10.70;78.60;;;;;;6246060;22;20376;-82
2022/02/05 14:13:25;;;;;;;1.33;1.10;;;11.40;78.20;;;;;;6245734;22;20185;-82
2022/02/05 14:15:56;;;;;;;1.27;0.80;;;11.60;77.10;;;;;;6246731;22;20428;-82
2022/02/05 14:18:23;;;;;;;1.67;1.00;;;12.10;74.80;;;;;;6247078;22;20849;-82
2022/02/05 14:20:59;;;;;;;2.23;0.80;;;12.00;73.70;;;;;;6244610;22;20388;-82
2022/02/05 14:23:31;;;;;;;0.67;0.67;;;12.00;74.10;;;;;;6245366;22;20430;-82
2022/02/05 14:26:15;;;;;;;2.10;0.90;;;11.50;74.00;;;;;;6246008;22;20385;-82
2022/02/05 14:28:50;;;;;;;1.07;0.80;;;10.90;77.10;;;;;;6246908;22;20395;-81
2022/02/05 14:41:24;;;;;;;2.70;0.93;;;8.70;87.00;;;;;;6272584;22;20468;-81
2022/02/05 14:43:50;;;;;;;1.00;0.73;;;8.20;88.80;;;;;;6245005;22;21234;-82
2022/02/05 14:46:16;;;;;;;1.13;0.80;;;8.00;89.90;;;;;;6245613;22;20587;-82
2022/02/05 14:48:41;;;;;;;2.20;1.20;;;8.10;89.00;;;;;;6245652;22;20224;-82
2022/02/05 14:51:08;;;;;;;1.00;0.90;;;7.90;90.40;;;;;;6245936;22;20165;-81
2022/02/05 14:53:33;;;;;;;2.10;1.13;;;7.80;90.20;;;;;;6248016;22;20756;-81
2022/02/05 14:55:59;;;;;;;3.90;1.00;;;7.70;90.10;;;;;;6245477;22;20396;-81
2022/02/05 14:58:25;;;;;;;1.03;0.93;;;7.60;90.60;;;;;;6244224;22;20188;-82
2022/02/05 15:00:50;;;;;;;1.70;1.43;;;7.70;90.90;;;;;;6246107;22;20385;-82
2022/02/05 15:03:19;;;;;;;2.43;1.00;;;7.60;91.00;;;;;;6242795;22;20404;-82
2022/02/05 15:05:47;;;;;;;1.80;0.70;;;7.70;91.00;;;;;;6247886;22;20945;-81
2022/02/05 15:08:12;;;;;;;3.13;0.70;;;7.70;90.60;;;;;;6247052;22;20399;-81
2022/02/05 15:10:38;;;;;;;3.10;1.00;;;7.60;90.60;;;;;;6248049;22;20693;-82
2022/02/05 15:13:05;;;;;;;2.20;1.17;;;8.00;90.60;;;;;;6245761;22;20508;-83
2022/02/05 15:15:32;;;;;;;1.13;1.00;;;8.30;90.50;;;;;;6245502;22;20333;-83
2022/02/05 15:17:57;;;;;;;2.20;0.60;;;8.10;90.20;;;;;;6246774;22;20426;-83
2022/02/05 15:20:23;;;;;;;2.90;1.53;;;7.70;90.50;;;;;;6243235;22;20494;-82
2022/02/05 15:22:50;;;;;;;2.70;1.97;;;7.60;90.90;;;;;;6245462;22;20158;-82
2022/02/05 15:25:17;;;;;;;4.67;1.10;;;7.40;91.30;;;;;;6245112;22;20188;-83
2022/02/05 15:27:43;;;;;;;3.40;0.93;;;7.20;91.70;;;;;;6241683;22;20400;-83
2022/02/05 15:30:11;;;;;;;0.83;0.83;;;7.20;91.70;;;;;;6246695;22;20411;-83
2022/02/05 15:32:37;;;;;;;5.57;3.30;;;7.20;92.20;;;;;;6248404;22;20494;-83
2022/02/05 15:35:04;;;;;;;11.10;8.10;;;7.10;92.50;;;;;;6247950;22;20442;-83
2022/02/05 15:37:30;;;;;;;3.27;1.50;;;7.10;92.60;;;;;;6253718;22;20836;-83
2022/02/05 15:45:06;;;;;;;4.17;2.37;;;7.10;93.50;;;;;;6274211;22;20156;-84
2022/02/05 15:47:32;;;;;;;6.90;1.90;;;7.00;93.80;;;;;;6243404;22;20460;-84
2022/02/05 15:49:58;;;;;;;4.70;2.03;;;7.00;94.40;;;;;;6243075;22;20883;-85
2022/02/05 15:52:24;;;;;;;5.00;1.80;;;7.00;94.40;;;;;;6244518;22;20412;-84
2022/02/05 15:54:51;;;;;;;3.07;1.23;;;6.90;94.40;;;;;;6244263;22;20609;-83
2022/02/05 16:02:13;;;;;;;2.53;1.10;;;6.80;93.80;;;;;;6280413;22;20173;-86
2022/02/05 16:04:39;;;;;;;4.30;1.60;;;6.60;93.80;;;;;;6244915;22;20925;-86
2022/02/05 16:07:08;;;;;;;1.97;1.77;;;6.60;94.00;;;;;;6245642;22;20402;-86
2022/02/05 16:09:36;;;;;;;1.37;1.10;;;6.50;94.10;;;;;;6232735;22;20842;-83
2022/02/05 16:12:02;;;;;;;3.70;1.43;;;6.50;94.00;;;;;;6248528;22;20516;-83
2022/02/05 16:14:28;;;;;;;3.57;1.77;;;6.50;94.30;;;;;;6249130;22;20271;-83
2022/02/05 16:16:53;;;;;;;1.47;1.13;;;6.40;94.50;;;;;;6246861;22;20431;-84
2022/02/05 16:19:19;;;;;;;3.57;1.47;;;6.30;94.90;;;;;;6243117;22;20232;-83
2022/02/05 16:21:56;;;;;;;2.17;1.67;;;6.20;94.60;;;;;;6241689;22;20495;-87
2022/02/05 16:24:22;;;;;;;1.57;1.27;;;6.20;94.60;;;;;;6244421;22;20477;-83
2022/02/05 16:26:50;;;;;;;3.13;1.97;;;6.10;94.80;;;;;;6244192;22;20506;-86
2022/02/05 16:29:17;;;;;;;2.57;1.50;;;6.10;95.00;;;;;;6245680;22;20799;-83
2022/02/05 16:31:48;;;;;;;1.93;1.57;;;6.10;94.70;;;;;;6246374;22;21320;-85
2022/02/05 16:34:16;;;;;;;3.83;2.97;;;6.10;94.90;;;;;;6245155;22;20441;-84